Time;durP1;ratioP1;P1;durP2;ratioP2;P2;SDS_P1;SDS_P2;PMS_P1;PMS_P2;Temp;Humidity;BMP_temperature;BMP_pressure;BME280_temperature;BME280_humidity;BME280_pressure;Samples;Min_cycle;Max_cycle;Signal;HPM_P1;HPM_P2
2021/07/02 00:00:49;;;;;;;5.53;3.78;;;;;;;;;;5133745;27;20721;-66
2021/07/02 00:03:16;;;;;;;5.20;3.40;;;;;;;;;;5133975;28;20046;-68
2021/07/02 00:05:42;;;;;;;4.05;3.53;;;;;;;;;;5134002;28;20053;-67
2021/07/02 00:08:08;;;;;;;7.50;3.70;;;;;;;;;;5115255;28;20020;-70
2021/07/02 00:10:35;;;;;;;7.22;3.95;;;;;;;;;;5138153;27;20026;-69
2021/07/02 00:13:01;;;;;;;8.35;3.63;;;;;;;;;;5119768;27;20027;-68
2021/07/02 00:15:27;;;;;;;8.68;3.70;;;;;;;;;;5119858;27;20102;-67
2021/07/02 00:17:53;;;;;;;11.38;3.85;;;;;;;;;;5119372;27;20023;-68
2021/07/02 00:20:19;;;;;;;6.15;3.42;;;;;;;;;;5137992;27;20114;-68
2021/07/02 00:22:46;;;;;;;5.13;3.65;;;;;;;;;;5138379;27;20487;-69
2021/07/02 00:25:12;;;;;;;6.55;4.22;;;;;;;;;;5137732;27;20026;-67
2021/07/02 00:27:39;;;;;;;6.32;3.35;;;;;;;;;;5137986;27;20019;-68
2021/07/02 00:30:06;;;;;;;6.57;3.90;;;;;;;;;;5137919;27;20027;-67
2021/07/02 00:32:32;;;;;;;6.13;3.10;;;;;;;;;;5119449;27;20099;-66
2021/07/02 00:34:58;;;;;;;4.57;3.10;;;;;;;;;;5137557;27;20046;-69
2021/07/02 00:37:24;;;;;;;7.10;3.33;;;;;;;;;;5137300;27;20153;-69
2021/07/02 00:39:51;;;;;;;12.45;4.40;;;;;;;;;;5119168;27;20118;-67
2021/07/02 00:42:17;;;;;;;5.80;3.05;;;;;;;;;;5137717;27;20038;-68
2021/07/02 00:44:45;;;;;;;14.65;4.28;;;;;;;;;;5119188;27;20027;-68
2021/07/02 00:47:12;;;;;;;6.53;3.15;;;;;;;;;;5137600;27;20030;-68
2021/07/02 00:49:38;;;;;;;8.60;2.90;;;;;;;;;;5137561;27;20027;-67
2021/07/02 00:52:05;;;;;;;5.05;2.80;;;;;;;;;;5137437;27;20022;-69
2021/07/02 00:54:32;;;;;;;4.53;2.85;;;;;;;;;;5137562;27;20039;-67
2021/07/02 00:56:59;;;;;;;8.63;3.00;;;;;;;;;;5137384;27;20019;-67
2021/07/02 00:59:25;;;;;;;6.55;2.60;;;;;;;;;;5118759;27;20015;-68
2021/07/02 01:01:51;;;;;;;9.50;3.35;;;;;;;;;;5137326;27;20102;-69
2021/07/02 01:04:17;;;;;;;6.10;2.53;;;;;;;;;;5137291;27;20055;-69
2021/07/02 01:06:45;;;;;;;6.47;2.80;;;;;;;;;;5137274;27;20450;-70
2021/07/02 01:09:12;;;;;;;4.97;2.47;;;;;;;;;;5137211;27;20020;-70
2021/07/02 01:11:38;;;;;;;5.03;2.80;;;;;;;;;;5137158;27;20022;-68
2021/07/02 01:14:05;;;;;;;8.10;2.90;;;;;;;;;;5118894;27;20119;-71
2021/07/02 01:16:31;;;;;;;3.17;2.88;;;;;;;;;;5120378;27;20113;-68
2021/07/02 01:18:58;;;;;;;9.63;3.17;;;;;;;;;;5139445;27;20054;-67
2021/07/02 01:21:24;;;;;;;9.23;2.90;;;;;;;;;;5139552;27;20152;-67
2021/07/02 01:23:50;;;;;;;4.70;2.80;;;;;;;;;;5121043;27;20027;-67
2021/07/02 01:26:16;;;;;;;4.47;2.97;;;;;;;;;;5139337;27;20019;-69
2021/07/02 01:28:43;;;;;;;9.63;2.97;;;;;;;;;;5138903;27;20043;-68
2021/07/02 01:31:09;;;;;;;9.38;3.30;;;;;;;;;;5138806;27;20019;-68
2021/07/02 01:33:36;;;;;;;8.70;3.35;;;;;;;;;;5118950;27;20023;-69
2021/07/02 01:36:06;;;;;;;8.80;3.13;;;;;;;;;;5136378;27;20126;-71
2021/07/02 01:38:33;;;;;;;8.85;3.45;;;;;;;;;;5118177;27;20020;-70
2021/07/02 01:40:59;;;;;;;8.70;3.40;;;;;;;;;;5118038;27;20118;-70
2021/07/02 01:43:27;;;;;;;9.30;3.33;;;;;;;;;;5136511;27;20027;-69
2021/07/02 01:45:56;;;;;;;13.00;3.95;;;;;;;;;;5118041;27;20027;-70
2021/07/02 01:48:22;;;;;;;6.63;3.15;;;;;;;;;;5136492;27;20068;-69
2021/07/02 01:50:48;;;;;;;9.57;3.45;;;;;;;;;;5136423;27;20050;-68
2021/07/02 01:53:14;;;;;;;4.03;2.85;;;;;;;;;;5136395;27;20023;-68
2021/07/02 01:55:41;;;;;;;6.10;3.03;;;;;;;;;;5136348;27;20051;-70
2021/07/02 01:58:07;;;;;;;10.52;3.45;;;;;;;;;;5136240;27;20028;-69
2021/07/02 02:00:34;;;;;;;11.50;3.47;;;;;;;;;;5136162;27;20027;-69
2021/07/02 02:03:00;;;;;;;16.38;3.50;;;;;;;;;;5117678;27;20019;-70
2021/07/02 02:05:26;;;;;;;15.10;3.95;;;;;;;;;;5136120;27;20027;-68
2021/07/02 02:07:52;;;;;;;4.70;3.00;;;;;;;;;;5136352;27;20062;-67
2021/07/02 02:10:18;;;;;;;8.57;3.20;;;;;;;;;;5135720;27;20808;-68
2021/07/02 02:12:45;;;;;;;10.93;3.97;;;;;;;;;;5117548;27;20061;-68
2021/07/02 02:15:12;;;;;;;12.35;3.45;;;;;;;;;;5117533;27;20160;-68
2021/07/02 02:17:38;;;;;;;7.13;3.50;;;;;;;;;;5135858;27;20019;-67
2021/07/02 02:20:05;;;;;;;9.80;3.80;;;;;;;;;;5135798;27;20019;-67
2021/07/02 02:22:31;;;;;;;10.32;3.33;;;;;;;;;;5135740;27;20054;-69
2021/07/02 02:24:58;;;;;;;11.75;3.20;;;;;;;;;;5117380;27;20118;-68
2021/07/02 02:27:24;;;;;;;12.60;3.50;;;;;;;;;;5135695;27;20027;-69
2021/07/02 02:29:50;;;;;;;8.95;3.83;;;;;;;;;;5135648;27;20106;-69
2021/07/02 02:32:16;;;;;;;10.48;3.50;;;;;;;;;;5134770;27;20445;-69
2021/07/02 02:34:42;;;;;;;16.08;3.60;;;;;;;;;;5117072;27;20023;-68
2021/07/02 02:37:09;;;;;;;11.98;3.55;;;;;;;;;;5135443;27;20130;-68
2021/07/02 02:39:35;;;;;;;10.90;3.63;;;;;;;;;;5116864;27;20113;-68
2021/07/02 02:42:01;;;;;;;15.65;3.75;;;;;;;;;;5135473;27;20059;-68
2021/07/02 02:44:27;;;;;;;9.18;3.40;;;;;;;;;;5135324;27;20098;-69
2021/07/02 02:46:53;;;;;;;11.52;3.55;;;;;;;;;;5135278;27;20111;-70
2021/07/02 02:49:20;;;;;;;5.95;3.28;;;;;;;;;;5116776;27;20476;-68
2021/07/02 02:51:46;;;;;;;13.00;3.58;;;;;;;;;;5135140;27;20023;-67
2021/07/02 02:54:12;;;;;;;7.63;3.63;;;;;;;;;;5116676;27;20023;-69
2021/07/02 02:57:03;;;;;;;13.07;3.70;;;;;;;;;;5135105;27;20023;-69
2021/07/02 02:59:24;;;;;;;14.70;3.60;;;;;;;;;;5134464;27;20031;-69
2021/07/02 03:01:50;;;;;;;11.80;3.63;;;;;;;;;;5134974;27;20111;-68
2021/07/02 03:04:17;;;;;;;12.10;3.33;;;;;;;;;;5134916;27;20024;-67
2021/07/02 03:06:43;;;;;;;12.05;3.38;;;;;;;;;;5116462;27;20055;-69
2021/07/02 03:09:09;;;;;;;7.55;3.00;;;;;;;;;;5116460;27;20073;-70
2021/07/02 03:11:35;;;;;;;6.88;2.83;;;;;;;;;;5134474;27;20499;-69
2021/07/02 03:14:01;;;;;;;10.65;3.35;;;;;;;;;;5116268;27;20062;-68
2021/07/02 03:16:28;;;;;;;6.97;3.00;;;;;;;;;;5134410;27;20043;-72
2021/07/02 03:18:54;;;;;;;6.15;2.65;;;;;;;;;;5134910;27;20027;-69
2021/07/02 03:21:20;;;;;;;5.60;2.67;;;;;;;;;;5134613;27;20114;-68
2021/07/02 03:23:46;;;;;;;8.43;2.53;;;;;;;;;;5134793;27;20520;-70
2021/07/02 03:26:16;;;;;;;12.45;3.28;;;;;;;;;;5134879;27;20024;-69
2021/07/02 03:28:42;;;;;;;7.15;2.55;;;;;;;;;;5116069;27;20019;-67
2021/07/02 03:31:08;;;;;;;8.05;2.75;;;;;;;;;;5116066;27;20469;-68
2021/07/02 03:33:35;;;;;;;6.00;2.40;;;;;;;;;;5115962;27;20431;-67
2021/07/02 03:36:01;;;;;;;4.40;2.25;;;;;;;;;;5134015;27;20463;-68
2021/07/02 03:38:27;;;;;;;5.70;2.72;;;;;;;;;;5134066;27;20093;-68
2021/07/02 03:40:53;;;;;;;5.45;2.72;;;;;;;;;;5133953;27;20027;-69
2021/07/02 03:43:20;;;;;;;5.30;2.20;;;;;;;;;;5133787;27;20038;-68
2021/07/02 03:45:46;;;;;;;10.43;2.53;;;;;;;;;;5134266;27;20035;-66
2021/07/02 03:48:12;;;;;;;8.57;2.80;;;;;;;;;;5133963;27;20430;-68
2021/07/02 03:50:39;;;;;;;7.97;2.42;;;;;;;;;;5134203;27;20447;-68
2021/07/02 03:53:05;;;;;;;9.88;2.20;;;;;;;;;;5134432;27;20395;-67
2021/07/02 03:55:31;;;;;;;7.63;2.78;;;;;;;;;;5134202;27;20018;-69
2021/07/02 03:57:57;;;;;;;8.68;2.45;;;;;;;;;;5134425;27;20102;-68
2021/07/02 04:00:23;;;;;;;10.48;2.60;;;;;;;;;;5133733;27;20015;-68
2021/07/02 04:02:50;;;;;;;7.18;3.10;;;;;;;;;;5134336;27;20102;-69
2021/07/02 04:05:16;;;;;;;6.22;2.75;;;;;;;;;;5133728;28;20023;-69
2021/07/02 04:07:42;;;;;;;8.73;3.63;;;;;;;;;;5134013;28;20069;-70
2021/07/02 04:10:08;;;;;;;10.70;2.90;;;;;;;;;;5133873;28;20039;-70
2021/07/02 04:12:35;;;;;;;13.32;3.47;;;;;;;;;;5133879;28;20027;-69
2021/07/02 04:15:01;;;;;;;6.95;2.72;;;;;;;;;;5133898;28;20363;-66
2021/07/02 04:17:27;;;;;;;10.88;3.05;;;;;;;;;;5115440;28;20114;-68
2021/07/02 04:19:53;;;;;;;14.75;3.20;;;;;;;;;;5115300;28;20030;-69
2021/07/02 04:22:19;;;;;;;9.93;3.20;;;;;;;;;;5133412;28;20034;-67
2021/07/02 04:24:46;;;;;;;10.15;3.15;;;;;;;;;;5114401;28;20131;-69
2021/07/02 04:27:13;;;;;;;9.77;2.65;;;;;;;;;;5114618;28;20027;-70
2021/07/02 04:29:39;;;;;;;11.63;3.65;;;;;;;;;;5133851;28;20118;-68
2021/07/02 04:32:06;;;;;;;10.20;3.47;;;;;;;;;;5115306;28;20505;-70
2021/07/02 04:34:32;;;;;;;6.53;2.83;;;;;;;;;;5115292;28;20082;-68
2021/07/02 04:36:58;;;;;;;11.77;3.22;;;;;;;;;;5133293;28;20092;-68
2021/07/02 04:39:24;;;;;;;9.33;3.17;;;;;;;;;;5133658;28;20349;-68
2021/07/02 04:41:51;;;;;;;9.95;2.60;;;;;;;;;;5133696;28;20038;-70
2021/07/02 04:44:17;;;;;;;7.55;2.85;;;;;;;;;;5115208;28;20019;-68
2021/07/02 04:46:43;;;;;;;5.43;2.45;;;;;;;;;;5133389;28;20016;-69
2021/07/02 04:49:10;;;;;;;8.57;3.22;;;;;;;;;;5115193;28;20026;-69
2021/07/02 04:51:36;;;;;;;5.55;2.38;;;;;;;;;;5133292;28;20436;-67
2021/07/02 04:54:02;;;;;;;4.80;2.72;;;;;;;;;;5133597;27;20027;-70
2021/07/02 04:56:29;;;;;;;13.43;2.80;;;;;;;;;;5137206;27;20016;-68
2021/07/02 04:58:55;;;;;;;9.80;3.05;;;;;;;;;;5137387;27;20011;-68
2021/07/02 05:01:22;;;;;;;13.18;3.17;;;;;;;;;;5137264;27;20034;-68
2021/07/02 05:03:49;;;;;;;8.52;2.50;;;;;;;;;;5118829;27;20027;-70
2021/07/02 05:06:15;;;;;;;9.38;2.75;;;;;;;;;;5118849;27;20015;-68
2021/07/02 05:08:41;;;;;;;13.95;2.65;;;;;;;;;;5118798;27;20118;-68
2021/07/02 05:11:09;;;;;;;9.63;2.97;;;;;;;;;;5137163;27;20031;-69
2021/07/02 05:13:37;;;;;;;5.60;2.17;;;;;;;;;;5118622;27;20054;-68
2021/07/02 05:16:03;;;;;;;5.85;2.00;;;;;;;;;;5137097;27;20015;-68
2021/07/02 05:18:30;;;;;;;8.35;2.10;;;;;;;;;;5137042;27;20019;-69
2021/07/02 05:20:56;;;;;;;6.15;2.13;;;;;;;;;;5136628;27;20085;-69
2021/07/02 05:23:22;;;;;;;9.82;2.30;;;;;;;;;;5137171;27;20030;-69
2021/07/02 05:25:48;;;;;;;5.05;1.58;;;;;;;;;;5136864;27;20106;-69
2021/07/02 05:28:14;;;;;;;4.68;1.77;;;;;;;;;;5118390;27;20042;-69
2021/07/02 05:30:40;;;;;;;6.63;2.35;;;;;;;;;;5118309;27;20072;-69
2021/07/02 05:33:07;;;;;;;7.10;1.90;;;;;;;;;;5118308;27;20015;-70
2021/07/02 05:35:33;;;;;;;8.23;2.33;;;;;;;;;;5136640;27;20747;-69
2021/07/02 05:37:59;;;;;;;7.85;1.77;;;;;;;;;;5118078;27;20027;-66
2021/07/02 05:40:25;;;;;;;5.85;1.98;;;;;;;;;;5136359;27;20031;-67
2021/07/02 05:42:52;;;;;;;5.18;2.15;;;;;;;;;;5136234;27;20487;-66
2021/07/02 05:45:18;;;;;;;7.28;2.47;;;;;;;;;;5136420;27;20027;-68
2021/07/02 05:47:50;;;;;;;3.50;1.40;;;;;;;;;;5136450;27;20023;-68
2021/07/02 05:50:17;;;;;;;3.72;1.80;;;;;;;;;;5136317;27;20106;-70
2021/07/02 05:52:43;;;;;;;10.82;2.40;;;;;;;;;;5136365;27;20471;-69
2021/07/02 05:55:12;;;;;;;10.98;2.17;;;;;;;;;;5136540;27;20027;-70
2021/07/02 05:57:38;;;;;;;10.18;2.50;;;;;;;;;;5136271;27;20023;-68
2021/07/02 06:00:05;;;;;;;8.68;2.03;;;;;;;;;;5136098;27;20030;-65
2021/07/02 06:02:31;;;;;;;2.60;1.80;;;;;;;;;;5117601;27;20471;-67
2021/07/02 06:04:58;;;;;;;5.45;2.03;;;;;;;;;;5117423;27;20146;-66
2021/07/02 06:07:24;;;;;;;3.50;1.92;;;;;;;;;;5116706;27;20546;-67
2021/07/02 06:09:50;;;;;;;4.30;1.48;;;;;;;;;;5135092;27;20023;-65
2021/07/02 06:12:17;;;;;;;2.08;1.48;;;;;;;;;;5134043;27;20104;-64
2021/07/02 06:14:43;;;;;;;3.58;2.00;;;;;;;;;;5134538;27;20027;-68
2021/07/02 06:17:09;;;;;;;23.38;1.83;;;;;;;;;;5133823;27;20011;-66
2021/07/02 06:19:35;;;;;;;7.97;2.17;;;;;;;;;;5114735;27;20062;-67
2021/07/02 06:22:01;;;;;;;4.78;1.30;;;;;;;;;;5115871;27;20820;-68
2021/07/02 06:24:28;;;;;;;2.42;1.10;;;;;;;;;;5133988;27;20491;-69
2021/07/02 06:26:54;;;;;;;3.70;1.35;;;;;;;;;;5135321;27;20102;-69
2021/07/02 06:29:20;;;;;;;3.28;1.63;;;;;;;;;;5135489;27;20051;-67
2021/07/02 06:31:46;;;;;;;3.53;1.20;;;;;;;;;;5117028;27;20027;-69
2021/07/02 06:34:12;;;;;;;2.15;1.10;;;;;;;;;;5135517;27;20023;-70
2021/07/02 06:36:39;;;;;;;4.75;1.38;;;;;;;;;;5135026;27;20051;-68
2021/07/02 06:39:05;;;;;;;7.47;1.42;;;;;;;;;;5135416;27;20050;-67
2021/07/02 06:41:31;;;;;;;7.95;1.95;;;;;;;;;;5135281;27;20428;-67
2021/07/02 06:43:57;;;;;;;2.42;1.88;;;;;;;;;;5135362;27;20034;-68
2021/07/02 06:46:23;;;;;;;6.88;1.70;;;;;;;;;;5135185;27;20487;-71
2021/07/02 06:48:49;;;;;;;1.90;1.50;;;;;;;;;;5135313;27;20186;-67
2021/07/02 06:51:16;;;;;;;4.30;1.80;;;;;;;;;;5135072;27;20118;-68
2021/07/02 06:53:42;;;;;;;5.70;1.35;;;;;;;;;;5135110;27;20054;-69
2021/07/02 06:56:08;;;;;;;2.17;1.58;;;;;;;;;;5134063;27;20486;-68
2021/07/02 06:58:35;;;;;;;2.88;1.25;;;;;;;;;;5135059;27;20035;-69
2021/07/02 07:01:01;;;;;;;4.57;1.83;;;;;;;;;;5133481;27;20046;-67
2021/07/02 07:03:27;;;;;;;4.47;1.55;;;;;;;;;;5133864;27;20019;-69
2021/07/02 07:05:53;;;;;;;3.58;1.67;;;;;;;;;;5115693;27;20030;-68
2021/07/02 07:08:20;;;;;;;5.25;1.50;;;;;;;;;;5115645;27;20024;-68
2021/07/02 07:10:46;;;;;;;1.77;1.27;;;;;;;;;;5134567;27;20031;-66
2021/07/02 07:13:13;;;;;;;3.05;1.40;;;;;;;;;;5116185;27;20523;-67
2021/07/02 07:15:39;;;;;;;4.47;1.10;;;;;;;;;;5134557;27;20023;-69
2021/07/02 07:18:05;;;;;;;2.30;1.10;;;;;;;;;;5134386;27;20015;-69
2021/07/02 07:20:31;;;;;;;1.15;1.00;;;;;;;;;;5134471;27;20042;-68
2021/07/02 07:22:58;;;;;;;2.95;1.00;;;;;;;;;;5134559;27;20238;-68
2021/07/02 07:25:25;;;;;;;1.95;0.75;;;;;;;;;;5134258;27;20023;-68
2021/07/02 07:27:51;;;;;;;1.77;1.15;;;;;;;;;;5134351;27;20011;-67
2021/07/02 07:30:17;;;;;;;1.20;1.00;;;;;;;;;;5116049;27;20110;-68
2021/07/02 07:32:46;;;;;;;3.15;1.50;;;;;;;;;;5134365;27;20026;-70
2021/07/02 07:35:17;;;;;;;1.23;1.13;;;;;;;;;;5115481;27;20027;-67
2021/07/02 07:37:44;;;;;;;3.63;1.48;;;;;;;;;;5093477;28;20028;-71
2021/07/02 07:40:10;;;;;;;1.73;0.90;;;;;;;;;;5093361;28;20032;-70
2021/07/02 07:42:36;;;;;;;1.20;1.10;;;;;;;;;;5093366;28;20507;-70
2021/07/02 07:45:03;;;;;;;5.28;0.95;;;;;;;;;;5093068;28;20111;-70
2021/07/02 07:47:29;;;;;;;2.45;1.30;;;;;;;;;;5093324;28;20055;-67
2021/07/02 07:49:55;;;;;;;1.55;1.00;;;;;;;;;;5093148;28;20468;-71
2021/07/02 07:52:43;;;;;;;2.45;1.10;;;;;;;;;;5092923;28;20028;-67
2021/07/02 07:55:09;;;;;;;2.08;1.35;;;;;;;;;;5078275;28;20016;-68
2021/07/02 07:57:36;;;;;;;1.17;0.90;;;;;;;;;;5080645;28;20056;-68
2021/07/02 08:00:03;;;;;;;0.88;0.60;;;;;;;;;;5092898;28;20032;-68
2021/07/02 08:02:29;;;;;;;0.70;0.70;;;;;;;;;;5093036;28;20099;-67
2021/07/02 08:04:56;;;;;;;2.13;0.90;;;;;;;;;;5091710;28;20028;-68
2021/07/02 08:07:22;;;;;;;2.00;0.93;;;;;;;;;;5093138;28;20035;-68
2021/07/02 08:09:48;;;;;;;1.85;0.80;;;;;;;;;;5091445;28;20018;-68
2021/07/02 08:12:14;;;;;;;0.75;0.75;;;;;;;;;;5092997;28;20099;-68
2021/07/02 08:14:40;;;;;;;3.63;1.85;;;;;;;;;;5092608;28;20035;-67
2021/07/02 08:17:06;;;;;;;0.90;0.88;;;;;;;;;;5093035;28;20029;-68
2021/07/02 08:19:34;;;;;;;1.67;1.33;;;;;;;;;;5090944;28;20052;-69
2021/07/02 08:22:00;;;;;;;2.53;0.88;;;;;;;;;;5092658;28;20034;-66
2021/07/02 08:24:26;;;;;;;1.52;0.90;;;;;;;;;;5093070;28;20112;-65
2021/07/02 08:26:57;;;;;;;0.73;0.73;;;;;;;;;;5093053;28;20373;-67
2021/07/02 08:29:26;;;;;;;2.15;0.68;;;;;;;;;;5093261;28;20369;-67
2021/07/02 08:31:52;;;;;;;4.15;2.60;;;;;;;;;;5097005;28;20024;-68
2021/07/02 08:34:19;;;;;;;3.13;1.05;;;;;;;;;;5096665;28;20032;-67
2021/07/02 08:36:45;;;;;;;2.85;0.93;;;;;;;;;;5121459;27;20043;-71
2021/07/02 08:39:11;;;;;;;3.13;0.90;;;;;;;;;;5137794;27;20019;-67
2021/07/02 08:41:38;;;;;;;1.40;0.68;;;;;;;;;;5119170;27;20482;-67
2021/07/02 08:44:05;;;;;;;3.33;0.75;;;;;;;;;;5137711;27;20030;-69
2021/07/02 08:46:36;;;;;;;3.75;1.35;;;;;;;;;;5137903;27;20432;-67
2021/07/02 08:49:04;;;;;;;1.33;0.80;;;;;;;;;;5119246;27;20027;-68
2021/07/02 08:51:31;;;;;;;0.90;0.90;;;;;;;;;;5137473;27;20035;-68
2021/07/02 08:53:57;;;;;;;3.58;0.98;;;;;;;;;;5118847;27;20118;-69
2021/07/02 08:56:24;;;;;;;0.98;0.60;;;;;;;;;;5118824;27;20039;-66
2021/07/02 08:58:50;;;;;;;1.05;0.60;;;;;;;;;;5137248;27;20122;-70
2021/07/02 09:01:35;;;;;;;3.97;1.23;;;;;;;;;;5137113;27;20106;-67
2021/07/02 09:04:17;;;;;;;2.50;0.85;;;;;;;;;;5118715;27;20033;-67
2021/07/02 09:06:43;;;;;;;0.73;0.65;;;;;;;;;;5118732;27;20054;-66
2021/07/02 09:09:10;;;;;;;6.82;1.20;;;;;;;;;;5137010;27;20050;-66
2021/07/02 09:11:36;;;;;;;3.13;0.80;;;;;;;;;;5137085;27;20064;-68
2021/07/02 09:14:04;;;;;;;0.98;0.90;;;;;;;;;;5136894;27;20023;-66
2021/07/02 09:16:38;;;;;;;4.85;0.57;;;;;;;;;;5118437;27;20076;-70
2021/07/02 09:19:22;;;;;;;2.90;0.70;;;;;;;;;;5137006;27;20019;-68
2021/07/02 09:21:49;;;;;;;1.98;0.52;;;;;;;;;;5136928;27;20062;-66
2021/07/02 09:24:33;;;;;;;2.00;0.60;;;;;;;;;;5136933;27;20102;-65
2021/07/02 09:26:59;;;;;;;1.85;0.95;;;;;;;;;;5136358;27;20035;-66
2021/07/02 09:29:26;;;;;;;2.47;1.20;;;;;;;;;;5118396;27;20019;-69
2021/07/02 09:31:59;;;;;;;3.38;0.93;;;;;;;;;;5118360;27;20115;-65
2021/07/02 09:34:44;;;;;;;1.60;0.47;;;;;;;;;;5136484;27;20023;-67
2021/07/02 09:37:20;;;;;;;0.40;0.40;;;;;;;;;;5136226;27;20082;-65
2021/07/02 09:39:46;;;;;;;1.65;0.70;;;;;;;;;;5136606;27;20471;-69
2021/07/02 09:42:29;;;;;;;1.13;0.65;;;;;;;;;;5135446;27;20037;-68
2021/07/02 09:45:04;;;;;;;0.52;0.50;;;;;;;;;;5136500;27;20072;-68
2021/07/02 09:47:30;;;;;;;2.70;1.02;;;;;;;;;;5136419;27;20015;-68
2021/07/02 09:50:15;;;;;;;1.90;1.05;;;;;;;;;;5136702;27;20144;-71
2021/07/02 09:53:01;;;;;;;2.15;0.60;;;;;;;;;;5136373;27;20019;-63
2021/07/02 09:55:31;;;;;;;1.30;0.47;;;;;;;;;;5135789;27;20471;-64
2021/07/02 09:58:06;;;;;;;2.60;1.00;;;;;;;;;;5136241;27;20023;-72
2021/07/02 10:00:40;;;;;;;0.50;0.50;;;;;;;;;;5117503;27;20114;-68
2021/07/02 10:03:07;;;;;;;0.57;0.57;;;;;;;;;;5135953;27;20027;-70
2021/07/02 10:05:44;;;;;;;0.93;0.63;;;;;;;;;;5136046;27;20479;-70
2021/07/02 10:08:10;;;;;;;0.43;0.43;;;;;;;;;;5136046;27;20106;-69
2021/07/02 10:10:37;;;;;;;0.60;0.60;;;;;;;;;;5135867;27;20486;-72
2021/07/02 10:13:04;;;;;;;1.88;0.50;;;;;;;;;;5117485;27;20023;-71
2021/07/02 10:15:30;;;;;;;0.60;0.60;;;;;;;;;;5117390;27;20608;-67
2021/07/02 10:17:58;;;;;;;2.58;0.60;;;;;;;;;;5135747;27;20059;-69
2021/07/02 10:20:28;;;;;;;0.60;0.40;;;;;;;;;;5117183;27;20019;-70
2021/07/02 10:22:57;;;;;;;4.70;0.50;;;;;;;;;;5117259;27;20023;-69
2021/07/02 10:25:24;;;;;;;1.65;0.40;;;;;;;;;;5135647;27;20502;-70
2021/07/02 10:27:52;;;;;;;0.55;0.55;;;;;;;;;;5117131;27;20023;-70
2021/07/02 10:30:18;;;;;;;0.90;0.40;;;;;;;;;;5117095;27;20031;-71
2021/07/02 10:32:45;;;;;;;0.70;0.45;;;;;;;;;;5135824;27;20110;-70
2021/07/02 10:35:15;;;;;;;0.82;0.57;;;;;;;;;;5134857;27;20485;-68
2021/07/02 10:37:47;;;;;;;1.13;0.95;;;;;;;;;;5135541;27;20047;-71
2021/07/02 10:40:32;;;;;;;2.15;0.90;;;;;;;;;;5135225;27;20364;-72
2021/07/02 10:43:17;;;;;;;6.13;1.10;;;;;;;;;;5135432;27;20098;-69
2021/07/02 10:46:02;;;;;;;0.60;0.60;;;;;;;;;;5135296;27;20027;-69
2021/07/02 10:49:01;;;;;;;0.55;0.50;;;;;;;;;;5135354;27;20023;-71
2021/07/02 10:51:30;;;;;;;0.25;0.25;;;;;;;;;;5031534;28;20033;-67
2021/07/02 10:54:15;;;;;;;3.03;0.50;;;;;;;;;;5031283;28;20033;-66
2021/07/02 10:56:44;;;;;;;1.23;0.40;;;;;;;;;;5032033;28;20033;-68
2021/07/02 10:59:14;;;;;;;0.82;0.55;;;;;;;;;;5031608;28;20030;-67
2021/07/02 11:01:58;;;;;;;2.05;0.47;;;;;;;;;;5031320;28;20038;-68
2021/07/02 11:04:31;;;;;;;1.95;0.43;;;;;;;;;;5031526;28;20042;-69
2021/07/02 11:06:58;;;;;;;3.80;0.50;;;;;;;;;;5031572;28;20029;-65
2021/07/02 11:09:42;;;;;;;0.45;0.45;;;;;;;;;;5031375;28;20030;-67
2021/07/02 11:12:10;;;;;;;0.40;0.40;;;;;;;;;;5031293;28;20034;-64
2021/07/02 11:14:54;;;;;;;0.50;0.50;;;;;;;;;;5031200;28;20037;-66
2021/07/02 11:17:32;;;;;;;0.70;0.70;;;;;;;;;;5031221;28;20462;-67
2021/07/02 11:20:13;;;;;;;1.27;0.45;;;;;;;;;;5031064;28;20098;-67
2021/07/02 11:22:47;;;;;;;1.60;0.60;;;;;;;;;;5031180;28;20025;-65
2021/07/02 11:32:53;;;;;;;5.07;0.40;;;;;;;;;;5134400;27;20034;-67
2021/07/02 11:35:20;;;;;;;0.63;0.40;;;;;;;;;;5134106;27;20122;-68
2021/07/02 11:38:04;;;;;;;0.47;0.47;;;;;;;;;;5134363;27;20497;-68
2021/07/02 11:40:37;;;;;;;0.30;0.30;;;;;;;;;;5134142;27;20031;-66
2021/07/02 11:43:09;;;;;;;2.58;0.50;;;;;;;;;;5133866;27;20050;-70
2021/07/02 11:45:42;;;;;;;0.57;0.40;;;;;;;;;;5115554;27;20023;-67
2021/07/02 11:48:10;;;;;;;0.50;0.40;;;;;;;;;;5115689;28;20376;-67
2021/07/02 11:50:40;;;;;;;0.45;0.30;;;;;;;;;;5134265;27;20032;-69
2021/07/02 11:53:06;;;;;;;0.30;0.30;;;;;;;;;;5133860;27;20390;-66
2021/07/02 11:55:32;;;;;;;0.45;0.45;;;;;;;;;;5113388;27;20440;-65
2021/07/02 11:58:15;;;;;;;0.35;0.35;;;;;;;;;;5133493;27;20025;-66
2021/07/02 12:00:41;;;;;;;1.58;0.50;;;;;;;;;;5133966;27;20051;-66
2021/07/02 12:03:09;;;;;;;3.33;0.50;;;;;;;;;;5133795;27;20053;-68
2021/07/02 12:05:36;;;;;;;4.13;0.50;;;;;;;;;;5133147;27;20105;-68
2021/07/02 12:08:02;;;;;;;0.45;0.40;;;;;;;;;;5133980;28;20016;-68
2021/07/02 12:10:28;;;;;;;1.48;0.50;;;;;;;;;;5133858;28;20031;-65
2021/07/02 12:13:07;;;;;;;0.40;0.40;;;;;;;;;;5134107;28;20027;-68
2021/07/02 12:15:33;;;;;;;0.30;0.30;;;;;;;;;;5133238;28;20106;-69
2021/07/02 12:18:00;;;;;;;1.55;0.32;;;;;;;;;;5133540;28;20464;-69
2021/07/02 12:20:26;;;;;;;1.23;0.40;;;;;;;;;;5133824;28;20107;-71
2021/07/02 12:23:06;;;;;;;0.40;0.40;;;;;;;;;;5133287;28;20027;-68
2021/07/02 12:25:33;;;;;;;0.80;0.40;;;;;;;;;;5133362;28;20476;-68
2021/07/02 12:28:00;;;;;;;0.40;0.40;;;;;;;;;;5133750;28;20023;-66
2021/07/02 12:30:26;;;;;;;0.88;0.50;;;;;;;;;;5133745;28;20027;-68
2021/07/02 12:32:53;;;;;;;0.32;0.32;;;;;;;;;;5133735;28;20368;-67
2021/07/02 12:35:19;;;;;;;5.47;0.60;;;;;;;;;;5126657;28;20024;-68
2021/07/02 12:37:46;;;;;;;1.45;0.50;;;;;;;;;;5113133;28;20031;-66
2021/07/02 12:40:13;;;;;;;2.03;0.70;;;;;;;;;;5113177;28;20024;-67
2021/07/02 12:42:45;;;;;;;0.52;0.50;;;;;;;;;;5096767;28;20024;-64
2021/07/02 12:45:12;;;;;;;1.90;0.80;;;;;;;;;;5111418;28;20062;-64
2021/07/02 12:47:39;;;;;;;0.55;0.55;;;;;;;;;;5113028;28;20016;-64
2021/07/02 12:50:12;;;;;;;0.60;0.43;;;;;;;;;;5116011;28;20542;-67
2021/07/02 12:55:05;;;;;;;0.52;0.52;;;;;;;;;;5133283;28;20031;-64
2021/07/02 12:57:36;;;;;;;0.70;0.55;;;;;;;;;;5133411;28;20464;-66
2021/07/02 13:00:12;;;;;;;0.52;0.52;;;;;;;;;;5133521;28;20103;-69
2021/07/02 13:02:39;;;;;;;0.60;0.60;;;;;;;;;;5132961;28;20104;-67
2021/07/02 13:05:25;;;;;;;2.30;0.60;;;;;;;;;;5132710;28;20027;-66
2021/07/02 13:07:53;;;;;;;3.85;0.60;;;;;;;;;;5132595;28;20106;-66
2021/07/02 13:10:21;;;;;;;0.50;0.50;;;;;;;;;;5114579;28;20047;-65
2021/07/02 13:13:03;;;;;;;0.95;0.80;;;;;;;;;;5114534;28;20035;-66
2021/07/02 13:15:30;;;;;;;6.55;0.60;;;;;;;;;;5115061;27;20026;-68
2021/07/02 13:17:57;;;;;;;0.38;0.38;;;;;;;;;;5136335;27;20027;-68
2021/07/02 13:20:24;;;;;;;0.50;0.50;;;;;;;;;;5136816;27;20024;-70
2021/07/02 13:23:05;;;;;;;1.15;0.60;;;;;;;;;;5136612;27;20379;-70
2021/07/02 13:25:33;;;;;;;1.52;0.45;;;;;;;;;;5117809;27;20348;-71
2021/07/02 13:28:00;;;;;;;1.75;0.68;;;;;;;;;;5118032;27;20110;-68
2021/07/02 13:30:27;;;;;;;1.27;0.35;;;;;;;;;;5136748;27;20034;-67
2021/07/02 13:33:10;;;;;;;0.40;0.40;;;;;;;;;;5135186;27;20019;-71
2021/07/02 13:35:37;;;;;;;0.50;0.50;;;;;;;;;;5117695;27;20418;-69
2021/07/02 13:38:07;;;;;;;0.68;0.68;;;;;;;;;;5136791;27;20060;-69
2021/07/02 13:40:39;;;;;;;0.50;0.50;;;;;;;;;;5137131;27;20019;-70
2021/07/02 13:43:10;;;;;;;3.03;0.63;;;;;;;;;;5137892;27;20494;-72
2021/07/02 13:45:37;;;;;;;0.30;0.30;;;;;;;;;;5137837;27;20019;-70
2021/07/02 13:48:07;;;;;;;0.47;0.47;;;;;;;;;;5118765;27;20471;-73
2021/07/02 13:50:34;;;;;;;0.60;0.60;;;;;;;;;;5119080;27;20106;-70
2021/07/02 13:53:00;;;;;;;1.55;0.50;;;;;;;;;;5139119;27;20061;-70
2021/07/02 13:55:27;;;;;;;1.65;0.55;;;;;;;;;;5118528;27;20475;-71
2021/07/02 13:57:53;;;;;;;0.50;0.50;;;;;;;;;;5136055;27;20226;-70
2021/07/02 14:00:19;;;;;;;1.13;0.60;;;;;;;;;;5136091;27;20029;-68
2021/07/02 14:02:45;;;;;;;1.95;0.50;;;;;;;;;;5136124;27;20490;-67
2021/07/02 14:05:11;;;;;;;2.28;0.80;;;;;;;;;;5117746;27;20118;-68
2021/07/02 14:07:38;;;;;;;0.60;0.60;;;;;;;;;;5117003;27;20061;-69
2021/07/02 14:10:04;;;;;;;0.50;0.50;;;;;;;;;;5134658;27;20098;-70
2021/07/02 14:12:30;;;;;;;0.77;0.50;;;;;;;;;;5133669;27;20602;-69
2021/07/02 14:14:56;;;;;;;1.77;0.50;;;;;;;;;;5135704;27;20060;-69
2021/07/02 14:17:23;;;;;;;0.50;0.50;;;;;;;;;;5135795;27;20027;-68
2021/07/02 14:19:49;;;;;;;0.55;0.55;;;;;;;;;;5117378;27;20019;-68
2021/07/02 14:22:15;;;;;;;0.50;0.50;;;;;;;;;;5116968;27;20066;-66
2021/07/02 14:24:42;;;;;;;1.45;0.68;;;;;;;;;;5117223;27;20023;-68
2021/07/02 14:27:08;;;;;;;0.40;0.40;;;;;;;;;;5134758;27;20505;-69
2021/07/02 14:29:34;;;;;;;1.50;0.52;;;;;;;;;;5135780;27;20110;-68
2021/07/02 14:32:00;;;;;;;0.43;0.43;;;;;;;;;;5135569;27;20031;-68
2021/07/02 14:34:26;;;;;;;0.50;0.50;;;;;;;;;;5135333;27;20027;-68
2021/07/02 14:36:52;;;;;;;0.50;0.50;;;;;;;;;;5134246;27;20043;-70
2021/07/02 14:39:19;;;;;;;1.42;0.50;;;;;;;;;;5133951;27;20027;-70
2021/07/02 14:41:46;;;;;;;0.40;0.40;;;;;;;;;;5134402;27;20366;-71
2021/07/02 14:44:12;;;;;;;0.40;0.40;;;;;;;;;;5134983;27;20023;-70
2021/07/02 14:46:38;;;;;;;0.50;0.50;;;;;;;;;;5135304;27;20097;-68
2021/07/02 14:49:05;;;;;;;0.52;0.52;;;;;;;;;;5116569;27;20118;-69
2021/07/02 14:51:31;;;;;;;2.00;0.60;;;;;;;;;;5135416;27;20550;-68
2021/07/02 14:53:57;;;;;;;4.55;0.88;;;;;;;;;;5134877;27;20403;-70
2021/07/02 14:56:24;;;;;;;0.55;0.52;;;;;;;;;;5135196;27;20075;-69